Time;durP1;ratioP1;P1;durP2;ratioP2;P2;SDS_P1;SDS_P2;PMS_P1;PMS_P2;Temp;Humidity;BMP_temperature;BMP_pressure;BME280_temperature;BME280_humidity;BME280_pressure;Samples;Min_cycle;Max_cycle;Signal;HPM_P1;HPM_P2
2023/12/03 00:00:07;;;;;;;163.35;156.38;;;-1.90;99.90;;;;;;5052505;28;20105;-75
2023/12/03 00:02:34;;;;;;;205.10;196.13;;;-1.90;99.90;;;;;;5044569;28;20045;-75
2023/12/03 00:04:59;;;;;;;168.73;161.60;;;-1.90;99.90;;;;;;5070024;28;20033;-75
2023/12/03 00:07:28;;;;;;;190.53;182.43;;;-1.90;99.90;;;;;;5044603;28;20385;-75
2023/12/03 00:09:55;;;;;;;156.98;150.40;;;-1.90;99.90;;;;;;5062855;28;20123;-75
2023/12/03 00:12:20;;;;;;;162.20;155.15;;;-1.90;99.90;;;;;;5056683;28;20036;-75
2023/12/03 00:14:46;;;;;;;149.57;142.90;;;-1.90;99.90;;;;;;5038030;28;20687;-75
2023/12/03 00:17:12;;;;;;;260.73;249.00;;;-1.90;99.90;;;;;;5049988;28;20060;-75
2023/12/03 00:19:38;;;;;;;194.83;186.43;;;-1.90;99.90;;;;;;5037695;28;20084;-75
2023/12/03 00:22:04;;;;;;;159.77;152.93;;;-1.90;99.90;;;;;;5056048;28;20120;-75
2023/12/03 00:24:30;;;;;;;150.55;143.95;;;-1.90;99.90;;;;;;5034784;28;20472;-75
2023/12/03 00:26:56;;;;;;;163.13;155.87;;;-1.90;99.90;;;;;;5057048;28;20036;-75
2023/12/03 00:29:22;;;;;;;142.53;136.43;;;-1.80;99.90;;;;;;5057797;28;20091;-75
2023/12/03 00:31:47;;;;;;;148.13;141.83;;;-1.80;99.90;;;;;;5057982;28;20092;-75
2023/12/03 00:34:13;;;;;;;169.73;162.40;;;-1.80;99.90;;;;;;5050738;28;20101;-75
2023/12/03 00:36:39;;;;;;;176.43;168.70;;;-1.80;99.90;;;;;;5056541;28;20095;-75
2023/12/03 00:39:06;;;;;;;201.03;192.17;;;-1.80;99.90;;;;;;5038140;28;20086;-75
2023/12/03 00:41:31;;;;;;;208.20;199.10;;;-1.80;99.90;;;;;;5032971;28;20453;-76
2023/12/03 00:43:57;;;;;;;213.33;203.90;;;-1.70;99.90;;;;;;5054898;28;21007;-75
2023/12/03 00:46:23;;;;;;;202.90;194.33;;;-1.70;99.90;;;;;;5055877;28;20127;-76
2023/12/03 00:48:49;;;;;;;161.00;153.87;;;-1.70;99.90;;;;;;5050052;28;20040;-75
2023/12/03 00:51:15;;;;;;;240.13;229.23;;;-1.70;99.90;;;;;;5038053;28;20040;-75
2023/12/03 00:53:44;;;;;;;233.73;223.53;;;-1.60;99.90;;;;;;5047449;28;20084;-76
2023/12/03 00:56:10;;;;;;;208.00;198.35;;;-1.60;99.90;;;;;;5052958;28;20387;-75
2023/12/03 00:58:36;;;;;;;181.35;173.30;;;-1.40;99.90;;;;;;5037802;28;20036;-76
2023/12/03 01:01:02;;;;;;;147.00;140.33;;;-1.40;99.90;;;;;;5033984;28;20033;-76
2023/12/03 01:03:28;;;;;;;173.05;165.25;;;-1.30;99.90;;;;;;5048528;28;20423;-76
2023/12/03 01:05:54;;;;;;;158.35;150.93;;;-1.20;99.90;;;;;;5054973;28;20032;-75
2023/12/03 01:08:20;;;;;;;170.15;162.45;;;-1.10;99.90;;;;;;5046801;28;20485;-76
2023/12/03 01:10:46;;;;;;;268.03;255.93;;;-1.10;99.90;;;;;;5054304;28;20048;-75
2023/12/03 01:13:11;;;;;;;211.88;202.13;;;-1.00;99.90;;;;;;5055615;28;20487;-76
2023/12/03 01:15:37;;;;;;;219.03;209.27;;;-1.10;99.90;;;;;;5052999;28;20128;-76
2023/12/03 01:18:03;;;;;;;203.23;194.23;;;-1.10;99.90;;;;;;5051719;28;20044;-75
2023/12/03 01:20:29;;;;;;;217.77;208.10;;;-1.10;99.90;;;;;;5071496;28;20075;-76
2023/12/03 01:22:55;;;;;;;230.95;220.05;;;-1.00;99.90;;;;;;5066656;28;20036;-75
2023/12/03 01:25:21;;;;;;;226.43;215.90;;;-0.90;99.90;;;;;;5045388;28;20485;-76
2023/12/03 01:27:47;;;;;;;242.55;231.52;;;-0.90;99.90;;;;;;5068692;28;20056;-75
2023/12/03 01:30:13;;;;;;;268.07;256.67;;;-1.00;99.90;;;;;;5045709;28;20405;-76
2023/12/03 01:32:39;;;;;;;261.23;249.40;;;-1.00;99.90;;;;;;5058611;28;20143;-76
2023/12/03 01:35:05;;;;;;;270.17;258.05;;;-1.10;99.90;;;;;;5037819;28;20059;-76
2023/12/03 01:37:32;;;;;;;226.07;216.05;;;-1.20;99.90;;;;;;5060001;28;20464;-76
2023/12/03 01:39:57;;;;;;;245.48;234.43;;;-1.30;99.90;;;;;;5055555;28;20442;-76
2023/12/03 01:42:24;;;;;;;214.30;204.90;;;-1.40;99.90;;;;;;5061562;28;20053;-76
2023/12/03 01:44:51;;;;;;;210.80;201.55;;;-1.50;99.90;;;;;;5058524;28;20062;-76
2023/12/03 01:47:17;;;;;;;208.20;198.93;;;-1.50;99.90;;;;;;5061306;28;20024;-76
2023/12/03 01:49:44;;;;;;;226.88;216.55;;;-1.60;99.90;;;;;;5055785;28;20458;-76
2023/12/03 01:52:11;;;;;;;205.82;197.05;;;-1.60;99.90;;;;;;5050712;28;20042;-76
2023/12/03 01:54:38;;;;;;;217.02;207.70;;;-1.70;99.90;;;;;;5062424;28;20037;-76
2023/12/03 01:57:04;;;;;;;183.57;175.60;;;-1.70;99.90;;;;;;5043093;28;20049;-76
2023/12/03 01:59:31;;;;;;;149.10;142.47;;;-1.70;99.90;;;;;;5045731;28;20507;-76
2023/12/03 02:01:57;;;;;;;189.18;180.70;;;-1.60;99.90;;;;;;5053956;28;20304;-77
2023/12/03 02:04:23;;;;;;;199.73;190.87;;;-1.60;99.90;;;;;;5037694;28;20051;-76
2023/12/03 02:06:49;;;;;;;165.63;158.20;;;-1.60;99.90;;;;;;5049653;28;20087;-76
2023/12/03 02:09:16;;;;;;;177.57;169.55;;;-1.60;99.90;;;;;;5057956;28;20411;-76
2023/12/03 02:11:43;;;;;;;183.40;175.10;;;-1.60;99.90;;;;;;5054911;28;20048;-76
2023/12/03 02:14:09;;;;;;;142.90;136.25;;;-1.60;99.90;;;;;;5036499;28;20044;-76
2023/12/03 02:16:35;;;;;;;163.07;155.70;;;-1.60;99.90;;;;;;5038437;28;20041;-76
2023/12/03 02:19:02;;;;;;;153.10;146.20;;;-1.60;99.90;;;;;;5060408;28;20047;-76
2023/12/03 02:21:28;;;;;;;150.85;144.15;;;-1.60;99.90;;;;;;5040672;28;20040;-76
2023/12/03 02:23:54;;;;;;;146.15;139.35;;;-1.60;99.90;;;;;;5057461;28;20033;-76
2023/12/03 02:26:20;;;;;;;126.50;120.67;;;-1.60;99.90;;;;;;5062507;28;20086;-76
2023/12/03 02:28:46;;;;;;;184.13;174.75;;;-1.70;99.90;;;;;;5036090;28;20052;-76
2023/12/03 02:31:12;;;;;;;183.23;174.30;;;-1.70;99.90;;;;;;5047630;28;20044;-76
2023/12/03 02:33:37;;;;;;;244.33;232.07;;;-1.50;99.90;;;;;;5062282;28;20510;-76
2023/12/03 02:36:03;;;;;;;244.50;231.80;;;-1.40;99.90;;;;;;5060634;28;20999;-76
2023/12/03 02:38:29;;;;;;;229.48;218.27;;;-1.30;99.90;;;;;;5055084;28;20045;-77
2023/12/03 02:40:58;;;;;;;154.60;146.67;;;-1.30;99.90;;;;;;5041119;28;20051;-76
2023/12/03 02:43:24;;;;;;;172.35;163.75;;;-1.30;99.90;;;;;;5044190;28;20040;-76
2023/12/03 02:45:50;;;;;;;109.20;103.40;;;-1.30;99.90;;;;;;5041308;28;20040;-76
2023/12/03 02:48:15;;;;;;;133.30;126.67;;;-1.40;99.90;;;;;;5057399;28;20033;-76
2023/12/03 02:50:41;;;;;;;143.20;136.00;;;-1.50;99.90;;;;;;5047777;28;20123;-76
2023/12/03 02:53:07;;;;;;;138.00;131.03;;;-1.60;99.90;;;;;;5048936;28;20113;-76
2023/12/03 02:55:33;;;;;;;89.63;84.57;;;-1.60;99.90;;;;;;5072043;28;20072;-76
2023/12/03 02:57:58;;;;;;;88.70;83.77;;;-1.70;99.90;;;;;;5066648;28;20033;-76
2023/12/03 03:00:24;;;;;;;121.63;115.20;;;-1.70;99.90;;;;;;5047951;28;20040;-76
2023/12/03 03:02:50;;;;;;;152.80;145.17;;;-1.80;99.90;;;;;;5068133;28;20051;-76
2023/12/03 03:05:16;;;;;;;140.07;133.10;;;-1.90;99.90;;;;;;5068284;28;20068;-75
2023/12/03 03:07:42;;;;;;;125.17;118.97;;;-2.00;99.90;;;;;;5067881;28;20503;-76
2023/12/03 03:10:08;;;;;;;142.07;134.87;;;-2.00;99.90;;;;;;5058731;28;20041;-76
2023/12/03 03:12:33;;;;;;;134.68;127.88;;;-2.10;99.90;;;;;;5034937;28;20033;-76
2023/12/03 03:14:59;;;;;;;106.47;100.80;;;-2.10;99.90;;;;;;5039953;28;20408;-76
2023/12/03 03:17:25;;;;;;;119.13;113.03;;;-2.20;99.90;;;;;;5046846;28;20044;-76
2023/12/03 03:19:50;;;;;;;89.73;84.23;;;-2.20;99.90;;;;;;5061817;28;20036;-76
2023/12/03 03:22:16;;;;;;;117.50;111.13;;;-2.20;99.90;;;;;;5055489;28;20037;-76
2023/12/03 03:24:42;;;;;;;108.63;102.93;;;-2.30;99.90;;;;;;5055132;28;20041;-76
2023/12/03 03:27:08;;;;;;;101.18;95.65;;;-2.30;99.90;;;;;;5062677;28;20041;-75
2023/12/03 03:29:35;;;;;;;100.43;94.97;;;-2.30;99.90;;;;;;5062180;28;20401;-76
2023/12/03 03:32:01;;;;;;;152.70;145.07;;;-2.30;99.90;;;;;;5058257;28;20041;-75
2023/12/03 03:34:27;;;;;;;127.60;121.07;;;-2.20;99.90;;;;;;5047831;28;20432;-76
2023/12/03 03:36:53;;;;;;;140.70;133.57;;;-2.20;99.90;;;;;;5037422;28;20044;-76
2023/12/03 03:39:18;;;;;;;160.53;152.20;;;-2.20;99.90;;;;;;5068101;28;20039;-76
2023/12/03 03:41:44;;;;;;;145.43;137.90;;;-2.10;99.90;;;;;;5065000;28;20048;-76
2023/12/03 03:44:10;;;;;;;157.10;149.07;;;-2.10;99.90;;;;;;5032111;28;20444;-75
2023/12/03 03:46:35;;;;;;;98.50;92.43;;;-2.00;99.90;;;;;;5034198;28;20037;-76
2023/12/03 03:49:01;;;;;;;164.67;156.20;;;-2.00;99.90;;;;;;5051976;28;20037;-76
2023/12/03 03:51:27;;;;;;;149.50;141.47;;;-2.00;99.90;;;;;;5065991;28;20048;-76
2023/12/03 03:53:52;;;;;;;141.40;133.83;;;-1.90;99.90;;;;;;5041908;28;20052;-76
2023/12/03 03:56:18;;;;;;;160.87;153.07;;;-1.90;99.90;;;;;;5041249;28;20124;-76
2023/12/03 03:58:44;;;;;;;195.70;186.10;;;-1.90;99.90;;;;;;5045403;28;20059;-76
2023/12/03 04:01:10;;;;;;;178.07;168.73;;;-1.90;99.90;;;;;;5063550;28;20047;-76
2023/12/03 04:03:36;;;;;;;179.65;170.73;;;-2.00;99.90;;;;;;5063562;28;20423;-76
2023/12/03 04:06:06;;;;;;;149.13;141.57;;;-2.00;99.90;;;;;;5060329;28;20158;-74
2023/12/03 04:08:32;;;;;;;132.68;125.82;;;-2.00;99.90;;;;;;5050838;28;20120;-76
2023/12/03 04:11:01;;;;;;;166.93;158.70;;;-2.00;99.90;;;;;;5039742;28;20040;-76
2023/12/03 04:13:26;;;;;;;193.35;183.70;;;-2.10;99.90;;;;;;5077122;28;20032;-76
2023/12/03 04:15:52;;;;;;;159.00;151.20;;;-2.10;99.90;;;;;;5065397;28;20100;-75
2023/12/03 04:18:18;;;;;;;122.07;115.77;;;-2.10;99.90;;;;;;5072424;28;20387;-76
2023/12/03 04:20:43;;;;;;;140.03;133.27;;;-2.10;99.90;;;;;;5055486;28;20608;-76
2023/12/03 04:23:09;;;;;;;136.67;129.93;;;-2.00;99.90;;;;;;5052292;28;20137;-76
2023/12/03 04:25:34;;;;;;;167.73;159.63;;;-1.90;99.90;;;;;;5060006;28;20043;-76
2023/12/03 04:28:01;;;;;;;195.10;185.40;;;-1.90;99.90;;;;;;5053128;28;20041;-76
2023/12/03 04:30:27;;;;;;;164.05;155.73;;;-1.80;99.90;;;;;;5046005;28;20153;-76
2023/12/03 04:32:53;;;;;;;173.93;165.23;;;-1.80;99.90;;;;;;5059384;28;20438;-76
2023/12/03 04:35:18;;;;;;;159.30;151.23;;;-1.80;99.90;;;;;;5067774;28;20105;-76
2023/12/03 04:37:45;;;;;;;166.50;158.17;;;-1.90;99.90;;;;;;5042240;28;20121;-76
2023/12/03 04:40:11;;;;;;;160.43;152.18;;;-1.90;99.90;;;;;;5051667;28;20032;-76
2023/12/03 04:42:37;;;;;;;147.43;139.90;;;-1.90;99.90;;;;;;5042227;28;20037;-76
2023/12/03 04:45:03;;;;;;;157.07;148.80;;;-1.90;99.90;;;;;;5061053;28;20044;-76
2023/12/03 04:47:29;;;;;;;166.90;158.38;;;-1.90;99.90;;;;;;5058675;28;20041;-74
2023/12/03 04:49:54;;;;;;;160.90;152.33;;;-2.00;99.90;;;;;;5052371;28;20079;-76
2023/12/03 04:52:20;;;;;;;159.00;150.60;;;-2.00;99.90;;;;;;5070183;28;20079;-76
2023/12/03 04:54:46;;;;;;;145.77;138.13;;;-2.00;99.90;;;;;;5068441;28;20301;-76
2023/12/03 04:57:11;;;;;;;181.53;172.00;;;-2.10;99.90;;;;;;5048199;28;20044;-76
2023/12/03 04:59:37;;;;;;;175.73;166.20;;;-2.10;99.90;;;;;;5054548;28;20041;-76
2023/12/03 05:02:03;;;;;;;131.60;124.20;;;-2.10;99.90;;;;;;5061680;28;20532;-75
2023/12/03 05:04:29;;;;;;;155.10;146.27;;;-2.10;99.90;;;;;;5064119;28;20024;-75
2023/12/03 05:06:54;;;;;;;148.57;139.83;;;-2.10;99.90;;;;;;5059210;28;20044;-76
2023/12/03 05:09:20;;;;;;;144.60;136.13;;;-2.10;99.90;;;;;;5056098;28;20040;-76
2023/12/03 05:11:46;;;;;;;132.93;125.30;;;-2.10;99.90;;;;;;5068566;28;20048;-76
2023/12/03 05:14:11;;;;;;;160.63;150.73;;;-2.10;99.90;;;;;;5065082;28;20119;-75
2023/12/03 05:16:37;;;;;;;173.87;163.03;;;-2.00;99.90;;;;;;5038801;28;20044;-76
2023/12/03 05:19:03;;;;;;;148.83;139.60;;;-2.00;99.90;;;;;;5059498;28;20044;-75
2023/12/03 05:21:29;;;;;;;147.10;137.37;;;-1.90;99.90;;;;;;5056490;28;20531;-76
2023/12/03 05:23:54;;;;;;;152.97;142.97;;;-1.90;99.90;;;;;;5055010;28;20120;-75
2023/12/03 05:26:20;;;;;;;162.00;151.87;;;-1.80;99.90;;;;;;5062854;28;20497;-76
2023/12/03 05:28:46;;;;;;;167.37;156.73;;;-1.80;99.90;;;;;;5036503;28;20041;-76
2023/12/03 05:31:12;;;;;;;220.57;206.67;;;-1.90;99.90;;;;;;5066075;28;20052;-76
2023/12/03 05:33:37;;;;;;;172.50;161.67;;;-1.90;99.90;;;;;;5048941;28;20483;-76
2023/12/03 05:36:03;;;;;;;169.13;157.77;;;-1.90;99.90;;;;;;5060431;28;20036;-76
2023/12/03 05:38:29;;;;;;;189.73;177.90;;;-1.90;99.90;;;;;;5049017;28;20043;-76
2023/12/03 05:40:55;;;;;;;171.63;160.47;;;-1.90;99.90;;;;;;5063265;28;20496;-76
2023/12/03 05:43:20;;;;;;;177.90;166.43;;;-1.60;99.90;;;;;;5038184;28;20132;-75
2023/12/03 05:45:46;;;;;;;150.80;141.60;;;-1.30;99.90;;;;;;5048309;28;20043;-76
2023/12/03 05:48:12;;;;;;;135.07;126.27;;;-1.20;99.90;;;;;;5036915;28;20044;-76
2023/12/03 05:50:38;;;;;;;156.50;146.60;;;-1.20;99.90;;;;;;5043950;28;20435;-76
2023/12/03 05:53:03;;;;;;;142.37;132.43;;;-1.30;99.90;;;;;;5060984;28;20045;-75
2023/12/03 05:55:29;;;;;;;173.47;162.27;;;-1.30;99.90;;;;;;5062266;28;20036;-76
2023/12/03 05:57:55;;;;;;;177.17;166.47;;;-1.30;99.90;;;;;;5067725;28;20567;-76
2023/12/03 06:00:20;;;;;;;157.67;147.53;;;-1.40;99.90;;;;;;5071737;28;20036;-76
2023/12/03 06:02:46;;;;;;;174.93;163.60;;;-1.40;99.90;;;;;;5059637;28;20063;-76
2023/12/03 06:05:12;;;;;;;202.30;189.30;;;-1.40;99.90;;;;;;5054707;28;20520;-75
2023/12/03 06:07:38;;;;;;;161.10;150.95;;;-1.40;99.90;;;;;;5042203;28;20531;-76
2023/12/03 06:10:06;;;;;;;159.88;148.77;;;-1.40;99.90;;;;;;5055571;28;20040;-76
2023/12/03 06:12:31;;;;;;;184.80;165.02;;;-1.40;99.90;;;;;;5045598;28;20403;-76
2023/12/03 06:14:57;;;;;;;276.30;239.53;;;-1.40;99.90;;;;;;5049509;28;20037;-75
2023/12/03 06:17:22;;;;;;;415.47;262.77;;;-1.40;99.90;;;;;;5054228;28;20533;-76
2023/12/03 06:19:48;;;;;;;321.93;203.67;;;-1.30;99.90;;;;;;5038281;28;20079;-76
2023/12/03 06:22:14;;;;;;;461.67;322.00;;;-1.30;99.90;;;;;;5063754;28;20037;-76
2023/12/03 06:24:39;;;;;;;621.20;311.93;;;-1.30;99.90;;;;;;5060473;28;20040;-76
2023/12/03 06:27:06;;;;;;;355.53;272.60;;;-1.30;99.90;;;;;;5054750;28;20025;-76
2023/12/03 06:29:31;;;;;;;513.92;342.65;;;-1.30;99.90;;;;;;5032476;28;20048;-76
2023/12/03 06:31:57;;;;;;;325.40;294.50;;;-1.20;99.90;;;;;;5064351;28;20098;-76
2023/12/03 06:34:23;;;;;;;368.03;335.90;;;-1.20;99.90;;;;;;5057887;28;20052;-77
2023/12/03 06:36:48;;;;;;;330.33;295.30;;;-1.10;99.90;;;;;;5049103;28;20501;-77
2023/12/03 06:39:14;;;;;;;294.60;266.07;;;-1.10;99.90;;;;;;5040160;28;20119;-77
2023/12/03 06:41:40;;;;;;;361.40;331.90;;;-1.00;99.90;;;;;;5064268;28;20584;-76
2023/12/03 06:44:06;;;;;;;404.33;372.00;;;-1.00;99.90;;;;;;5045210;28;20511;-76
2023/12/03 06:46:41;;;;;;;448.47;414.47;;;-1.00;99.90;;;;;;5063319;28;20044;-76
2023/12/03 06:49:07;;;;;;;398.50;366.53;;;-0.90;99.90;;;;;;5045936;28;20041;-77
2023/12/03 06:51:33;;;;;;;375.90;345.60;;;-0.90;99.90;;;;;;5056972;28;20373;-77
2023/12/03 06:54:00;;;;;;;398.80;367.38;;;-0.90;99.90;;;;;;5053621;28;20189;-77
2023/12/03 06:56:25;;;;;;;351.90;323.25;;;-0.80;99.90;;;;;;5048668;28;20469;-77
2023/12/03 06:58:51;;;;;;;316.27;290.03;;;-0.80;99.90;;;;;;5065038;28;20075;-77
2023/12/03 07:01:17;;;;;;;371.87;342.27;;;-0.80;99.90;;;;;;5053879;28;20130;-77
2023/12/03 07:03:43;;;;;;;424.17;390.47;;;-0.80;99.90;;;;;;5053489;28;20051;-77
2023/12/03 07:06:09;;;;;;;376.17;348.20;;;-0.80;99.90;;;;;;5065654;28;20036;-76
2023/12/03 07:08:34;;;;;;;396.73;367.17;;;-0.80;99.90;;;;;;5059061;28;20090;-75
2023/12/03 07:11:00;;;;;;;392.33;361.10;;;-0.70;99.90;;;;;;5063611;28;20049;-77
2023/12/03 07:13:26;;;;;;;430.10;399.97;;;-0.70;99.90;;;;;;5043595;28;20037;-76
2023/12/03 07:15:52;;;;;;;385.40;356.17;;;-0.70;99.90;;;;;;5038631;28;20040;-77
2023/12/03 07:18:17;;;;;;;434.57;402.57;;;-0.70;99.90;;;;;;5046600;28;20037;-77
2023/12/03 07:20:44;;;;;;;445.17;411.87;;;-0.70;99.90;;;;;;5048170;28;20044;-77
2023/12/03 07:23:09;;;;;;;375.15;343.45;;;-0.70;99.90;;;;;;5065997;28;20041;-77
2023/12/03 07:25:35;;;;;;;373.87;344.27;;;-0.70;99.90;;;;;;5063108;28;20090;-76
2023/12/03 07:28:01;;;;;;;442.37;407.57;;;-0.70;99.90;;;;;;5052309;28;20039;-76
2023/12/03 07:30:27;;;;;;;412.52;380.38;;;-0.70;99.90;;;;;;5063652;28;20084;-76
2023/12/03 07:32:53;;;;;;;389.67;357.30;;;-0.70;99.90;;;;;;5041634;28;20500;-77
2023/12/03 07:35:18;;;;;;;417.73;383.27;;;-0.70;99.90;;;;;;5068605;28;20093;-76
2023/12/03 07:37:44;;;;;;;389.47;356.47;;;-0.60;99.90;;;;;;5059133;28;20455;-77
2023/12/03 07:40:10;;;;;;;418.33;382.70;;;-0.60;99.90;;;;;;5062611;28;20071;-77
2023/12/03 07:42:36;;;;;;;415.43;381.23;;;-0.60;99.90;;;;;;5060973;28;20471;-76
2023/12/03 07:45:02;;;;;;;392.57;360.23;;;-0.60;99.90;;;;;;5049714;28;20472;-77
2023/12/03 07:47:29;;;;;;;425.83;388.20;;;-0.60;99.90;;;;;;5051471;28;20040;-76
2023/12/03 07:49:55;;;;;;;503.90;463.23;;;-0.60;99.90;;;;;;5046501;28;20040;-76
2023/12/03 07:52:21;;;;;;;443.37;406.23;;;-0.60;99.90;;;;;;5034947;28;20618;-77
2023/12/03 07:54:46;;;;;;;390.87;355.13;;;-0.50;99.90;;;;;;5055635;28;20041;-76
2023/12/03 07:57:12;;;;;;;429.63;394.10;;;-0.50;99.90;;;;;;5054507;28;20587;-76
2023/12/03 07:59:39;;;;;;;425.60;388.73;;;-0.50;99.90;;;;;;5035911;28;20056;-76
2023/12/03 08:02:05;;;;;;;441.48;404.23;;;-0.50;99.90;;;;;;5052821;28;20069;-76
2023/12/03 08:04:31;;;;;;;443.10;403.20;;;-0.50;99.90;;;;;;5060910;28;20726;-76
2023/12/03 08:06:56;;;;;;;441.93;402.37;;;-0.50;99.90;;;;;;5036881;28;20124;-76
2023/12/03 08:09:22;;;;;;;447.07;408.80;;;-0.40;99.90;;;;;;5056612;28;20063;-76
2023/12/03 08:11:48;;;;;;;408.63;369.53;;;-0.40;99.90;;;;;;5051622;28;20041;-76
2023/12/03 08:14:14;;;;;;;456.63;416.77;;;-0.40;99.90;;;;;;5049425;28;20496;-76
2023/12/03 08:16:40;;;;;;;487.40;444.67;;;-0.40;99.90;;;;;;5058656;28;20033;-76
2023/12/03 08:19:05;;;;;;;489.37;446.17;;;-0.40;99.90;;;;;;5040814;28;20098;-76
2023/12/03 08:21:32;;;;;;;463.27;425.17;;;-0.40;99.90;;;;;;5065137;28;20117;-76
2023/12/03 08:23:58;;;;;;;482.63;440.13;;;-0.30;99.90;;;;;;5054884;28;20096;-76
2023/12/03 08:26:24;;;;;;;454.20;416.93;;;-0.30;99.90;;;;;;5058370;28;20169;-76
2023/12/03 08:28:50;;;;;;;462.50;424.30;;;-0.30;99.90;;;;;;5072318;28;20036;-76
2023/12/03 08:31:16;;;;;;;487.37;446.97;;;-0.30;99.90;;;;;;5054350;28;20045;-76
2023/12/03 08:33:41;;;;;;;563.97;521.60;;;-0.30;99.90;;;;;;5040690;28;20044;-76
2023/12/03 08:36:08;;;;;;;562.23;519.93;;;-0.30;99.90;;;;;;5042831;28;20576;-76
2023/12/03 08:38:33;;;;;;;463.02;427.60;;;-0.30;99.90;;;;;;5040104;28;20048;-76
2023/12/03 08:40:59;;;;;;;438.20;405.83;;;-0.30;99.90;;;;;;5058060;28;20674;-76
2023/12/03 08:43:25;;;;;;;480.97;446.30;;;-0.30;99.90;;;;;;5063326;28;20055;-76
2023/12/03 08:45:51;;;;;;;391.43;363.10;;;-0.40;99.90;;;;;;5056938;28;20497;-76
2023/12/03 08:48:16;;;;;;;479.43;446.27;;;-0.30;99.90;;;;;;5033166;28;20592;-76
2023/12/03 08:50:42;;;;;;;443.27;409.50;;;-0.30;99.90;;;;;;5060054;28;20033;-76
2023/12/03 08:53:08;;;;;;;386.57;357.87;;;-0.30;99.90;;;;;;5046347;28;20213;-76
2023/12/03 08:55:33;;;;;;;527.33;488.63;;;-0.20;99.90;;;;;;5055615;28;20046;-76
2023/12/03 08:58:01;;;;;;;442.23;409.27;;;-0.20;99.90;;;;;;5055902;28;20052;-75
2023/12/03 09:00:27;;;;;;;477.63;442.77;;;-0.30;99.90;;;;;;5055224;28;20029;-76
2023/12/03 09:02:52;;;;;;;392.83;363.93;;;-0.30;99.90;;;;;;5053336;28;20056;-76
2023/12/03 09:05:18;;;;;;;387.43;359.77;;;-0.30;99.90;;;;;;5047964;28;20469;-76
2023/12/03 09:07:44;;;;;;;488.57;455.10;;;-0.30;99.90;;;;;;5056201;28;20052;-76
2023/12/03 09:10:10;;;;;;;396.00;368.03;;;-0.30;99.90;;;;;;5050846;28;20046;-76
2023/12/03 09:12:35;;;;;;;337.57;312.63;;;-0.30;99.90;;;;;;5055685;28;20294;-76
2023/12/03 09:15:01;;;;;;;454.93;422.50;;;-0.30;99.90;;;;;;5037817;28;20515;-76
2023/12/03 09:17:27;;;;;;;371.10;345.40;;;-0.30;99.90;;;;;;5060776;28;20043;-76
2023/12/03 09:19:52;;;;;;;468.70;437.27;;;-0.30;99.90;;;;;;5035030;28;20044;-76
2023/12/03 09:22:18;;;;;;;402.33;375.33;;;-0.30;99.90;;;;;;5052052;28;20135;-76
2023/12/03 09:24:44;;;;;;;445.37;414.57;;;-0.30;99.90;;;;;;5037349;28;20036;-76
2023/12/03 09:27:10;;;;;;;466.93;435.40;;;-0.30;99.90;;;;;;5047791;28;20041;-76
2023/12/03 09:29:36;;;;;;;435.07;406.00;;;-0.30;99.90;;;;;;5061546;28;20519;-76
2023/12/03 09:32:04;;;;;;;399.38;370.92;;;-0.20;99.90;;;;;;5060482;28;20040;-76
2023/12/03 09:34:30;;;;;;;465.50;433.85;;;-0.20;99.90;;;;;;5033910;28;20029;-76
2023/12/03 09:36:56;;;;;;;470.55;438.20;;;-0.20;99.90;;;;;;5046526;28;20051;-77
2023/12/03 09:39:22;;;;;;;469.92;438.88;;;-0.20;99.90;;;;;;5047470;28;20080;-77
2023/12/03 09:41:49;;;;;;;449.93;419.40;;;-0.20;99.90;;;;;;5054044;28;20117;-77
2023/12/03 09:44:27;;;;;;;428.90;399.38;;;-0.20;99.90;;;;;;5047092;28;20040;-76
2023/12/03 09:46:54;;;;;;;431.73;403.92;;;-0.20;99.90;;;;;;5057228;28;20520;-76
2023/12/03 09:49:25;;;;;;;473.85;442.23;;;-0.20;99.90;;;;;;5034870;28;20064;-78
2023/12/03 09:51:51;;;;;;;440.45;411.30;;;-0.10;99.90;;;;;;5048777;28;20049;-76
2023/12/03 09:54:21;;;;;;;476.05;444.70;;;-0.10;99.90;;;;;;5052073;28;20075;-76
2023/12/03 09:56:55;;;;;;;435.35;407.67;;;-0.10;99.90;;;;;;5036209;28;20041;-77
2023/12/03 09:59:22;;;;;;;545.92;511.25;;;-0.10;99.90;;;;;;5051698;28;20132;-76
2023/12/03 10:01:49;;;;;;;448.30;419.15;;;0.00;99.90;;;;;;5061296;28;20044;-76
2023/12/03 10:04:14;;;;;;;390.35;365.58;;;0.00;99.90;;;;;;5050535;28;20124;-76
2023/12/03 10:06:45;;;;;;;429.03;401.80;;;0.00;99.90;;;;;;5046642;28;20561;-76
2023/12/03 10:09:13;;;;;;;446.58;416.20;;;0.00;99.90;;;;;;5038492;28;20044;-77
2023/12/03 10:11:40;;;;;;;463.90;434.80;;;0.00;99.90;;;;;;5032160;28;20237;-76
2023/12/03 10:14:08;;;;;;;426.58;399.05;;;0.10;99.90;;;;;;5032928;28;20067;-76
2023/12/03 10:16:34;;;;;;;494.80;462.67;;;0.10;99.90;;;;;;5050054;28;20048;-76
2023/12/03 10:19:00;;;;;;;456.02;427.15;;;0.10;99.90;;;;;;5038810;28;20201;-76
2023/12/03 10:21:27;;;;;;;459.77;429.70;;;0.10;99.90;;;;;;5048120;28;20168;-76
2023/12/03 10:24:00;;;;;;;439.38;411.88;;;0.10;99.90;;;;;;5044436;28;20548;-76
2023/12/03 10:26:26;;;;;;;544.83;511.10;;;0.20;99.90;;;;;;5047565;28;20115;-76
2023/12/03 10:28:53;;;;;;;435.80;409.70;;;0.10;99.90;;;;;;5051914;28;20213;-76
2023/12/03 10:31:18;;;;;;;509.88;478.50;;;0.10;99.90;;;;;;5051092;28;20770;-76
2023/12/03 10:33:45;;;;;;;448.20;419.90;;;0.10;99.90;;;;;;5036280;28;20346;-76
2023/12/03 10:36:12;;;;;;;631.72;590.47;;;0.00;99.90;;;;;;5054685;28;20490;-76
2023/12/03 10:38:39;;;;;;;597.53;556.50;;;0.00;99.90;;;;;;5049904;28;20076;-76
2023/12/03 10:41:10;;;;;;;387.48;363.15;;;0.00;99.90;;;;;;5033448;28;20041;-76
2023/12/03 10:43:39;;;;;;;413.40;387.15;;;-0.10;99.90;;;;;;5047831;28;20045;-75
2023/12/03 10:46:10;;;;;;;385.63;360.08;;;-0.10;99.90;;;;;;5044115;28;20044;-76
2023/12/03 10:48:36;;;;;;;498.38;466.23;;;-0.10;99.90;;;;;;5031845;28;20041;-76
2023/12/03 10:51:07;;;;;;;445.27;416.30;;;-0.10;99.90;;;;;;5050431;28;20049;-76
2023/12/03 10:53:34;;;;;;;457.30;427.25;;;-0.10;99.90;;;;;;5039129;28;20044;-76
2023/12/03 10:56:03;;;;;;;494.65;460.42;;;-0.20;99.90;;;;;;5052125;28;20123;-75
2023/12/03 10:58:31;;;;;;;438.67;409.70;;;-0.20;99.90;;;;;;5052673;28;20045;-75
2023/12/03 11:01:10;;;;;;;520.92;486.00;;;-0.20;99.90;;;;;;5036030;28;20044;-76
2023/12/03 11:04:09;;;;;;;511.35;475.70;;;-0.20;99.90;;;;;;5050659;28;20127;-75
2023/12/03 11:06:36;;;;;;;438.60;409.27;;;-0.20;99.90;;;;;;5029744;28;20037;-75
2023/12/03 11:09:02;;;;;;;404.88;376.92;;;-0.10;99.90;;;;;;5035891;28;20044;-76
2023/12/03 11:11:29;;;;;;;364.30;339.70;;;-0.10;99.90;;;;;;5057376;28;20033;-75
2023/12/03 11:13:56;;;;;;;447.98;417.05;;;-0.10;99.90;;;;;;5035003;28;21097;-75
2023/12/03 11:16:25;;;;;;;489.75;453.77;;;0.00;99.90;;;;;;5050221;28;20463;-76
2023/12/03 11:19:15;;;;;;;498.30;465.13;;;0.00;99.90;;;;;;5036364;28;20117;-76
2023/12/03 11:22:09;;;;;;;478.40;447.02;;;0.10;99.90;;;;;;5046224;28;20095;-76
2023/12/03 11:24:47;;;;;;;421.58;395.05;;;0.10;99.90;;;;;;5029044;28;20037;-74
2023/12/03 11:27:12;;;;;;;448.95;421.27;;;0.10;99.90;;;;;;5036601;28;20107;-75
2023/12/03 11:29:54;;;;;;;429.07;402.43;;;0.10;99.90;;;;;;5034967;28;20575;-75
2023/12/03 11:32:24;;;;;;;474.63;445.17;;;0.10;99.90;;;;;;5040926;28;20044;-76
2023/12/03 11:34:59;;;;;;;508.85;476.40;;;0.20;99.90;;;;;;5028679;28;20040;-74
2023/12/03 11:37:30;;;;;;;425.98;399.58;;;0.30;99.90;;;;;;5054406;28;20076;-74
2023/12/03 11:40:00;;;;;;;357.33;334.85;;;0.30;99.90;;;;;;5032656;28;20063;-74
2023/12/03 11:42:26;;;;;;;530.55;493.40;;;0.40;99.90;;;;;;5059126;28;20044;-74
2023/12/03 11:45:25;;;;;;;429.83;401.87;;;0.40;99.90;;;;;;5039524;28;20028;-76
2023/12/03 11:48:06;;;;;;;362.35;338.75;;;0.50;99.90;;;;;;5032999;28;20045;-75
2023/12/03 11:50:36;;;;;;;381.80;357.90;;;0.50;99.90;;;;;;5045820;28;20044;-75
2023/12/03 11:53:04;;;;;;;401.95;377.52;;;0.50;99.90;;;;;;5033778;28;20523;-75
2023/12/03 11:55:33;;;;;;;334.55;313.30;;;0.60;99.90;;;;;;5047003;28;20247;-74
2023/12/03 11:57:58;;;;;;;365.85;343.80;;;0.60;99.90;;;;;;5062466;28;20105;-75
2023/12/03 12:00:24;;;;;;;355.27;333.30;;;0.60;99.90;;;;;;5051010;28;20123;-76
2023/12/03 12:02:51;;;;;;;407.53;384.03;;;0.60;99.90;;;;;;5041903;28;20029;-76
2023/12/03 12:05:18;;;;;;;365.38;342.65;;;0.70;99.90;;;;;;5033717;28;20671;-75